Time;durP1;ratioP1;P1;durP2;ratioP2;P2;SDS_P1;SDS_P2;PMS_P1;PMS_P2;Temp;Humidity;BMP_temperature;BMP_pressure;BME280_temperature;BME280_humidity;BME280_pressure;Samples;Min_cycle;Max_cycle;Signal;HPM_P1;HPM_P2
2023/04/17 00:01:15;;;;;;;;;;;;;;;8.80;82.23;98337.69;5061072;28;19921;-56
2023/04/17 00:03:45;;;;;;;;;;;;;;;8.77;82.30;98335.53;5064362;28;19928;-56
2023/04/17 00:06:15;;;;;;;;;;;;;;;8.71;82.58;98342.13;5062393;28;20388;-56
2023/04/17 00:08:43;;;;;;;;;;;;;;;8.74;82.10;98338.84;5067186;28;19924;-57
2023/04/17 00:11:11;;;;;;;;;;;;;;;8.69;82.58;98336.19;5072380;28;19928;-56
2023/04/17 00:13:42;;;;;;;;;;;;;;;8.64;82.65;98334.34;5056354;28;19921;-56
2023/04/17 00:16:11;;;;;;;;;;;;;;;8.60;83.12;98338.72;5058968;28;19927;-59
2023/04/17 00:18:39;;;;;;;;;;;;;;;8.70;82.94;98343.22;5070026;28;19924;-56
2023/04/17 00:21:06;;;;;;;;;;;;;;;8.62;82.83;98333.81;5062755;28;19928;-57
2023/04/17 00:23:35;;;;;;;;;;;;;;;8.69;82.70;98333.47;5069251;28;19952;-61
2023/04/17 00:26:03;;;;;;;;;;;;;;;8.55;82.85;98329.84;5065049;28;19927;-56
2023/04/17 00:28:30;;;;;;;;;;;;;;;8.62;83.03;98328.38;5065552;28;19943;-56
2023/04/17 00:31:00;;;;;;;;;;;;;;;8.60;83.12;98327.06;5064774;28;19921;-55
2023/04/17 00:33:27;;;;;;;;;;;;;;;8.62;83.06;98330.28;5073553;28;19942;-55
2023/04/17 00:35:55;;;;;;;;;;;;;;;8.62;83.14;98331.09;5054075;28;19921;-56
2023/04/17 00:38:25;;;;;;;;;;;;;;;8.63;83.05;98326.50;5073715;28;19920;-55
2023/04/17 00:40:53;;;;;;;;;;;;;;;8.59;82.62;98322.75;5070858;28;19924;-56
2023/04/17 00:43:21;;;;;;;;;;;;;;;8.59;82.61;98325.47;5070231;28;19936;-57
2023/04/17 00:45:49;;;;;;;;;;;;;;;8.53;83.16;98318.50;5059182;28;19920;-56
2023/04/17 00:48:19;;;;;;;;;;;;;;;8.55;83.45;98321.72;5067091;28;19956;-56
2023/04/17 00:50:47;;;;;;;;;;;;;;;8.54;83.24;98318.19;5067893;28;20277;-55
2023/04/17 00:53:16;;;;;;;;;;;;;;;8.54;82.85;98325.53;5060403;28;20018;-56
2023/04/17 00:55:44;;;;;;;;;;;;;;;8.55;82.79;98324.41;5060782;28;19921;-56
2023/04/17 00:58:12;;;;;;;;;;;;;;;8.49;83.11;98325.56;5070652;28;19935;-56
2023/04/17 01:00:40;;;;;;;;;;;;;;;8.54;83.52;98320.09;5061564;28;19928;-55
2023/04/17 01:03:08;;;;;;;;;;;;;;;8.49;83.39;98320.97;5066097;28;20396;-56
2023/04/17 01:05:40;;;;;;;;;;;;;;;8.43;83.42;98321.31;5068199;28;19966;-56
2023/04/17 01:08:08;;;;;;;;;;;;;;;8.53;83.34;98321.22;5064433;28;19924;-56
2023/04/17 01:10:35;;;;;;;;;;;;;;;8.46;83.15;98324.22;5063046;28;19944;-58
2023/04/17 01:13:03;;;;;;;;;;;;;;;8.41;83.64;98321.56;5066569;28;19925;-55
2023/04/17 01:15:32;;;;;;;;;;;;;;;8.52;83.37;98320.41;5063435;28;20025;-56
2023/04/17 01:18:00;;;;;;;;;;;;;;;8.44;83.18;98320.22;5057597;28;19924;-56
2023/04/17 01:20:29;;;;;;;;;;;;;;;8.45;83.33;98319.91;5067498;28;20260;-55
2023/04/17 01:22:59;;;;;;;;;;;;;;;8.36;83.66;98324.34;5061119;28;19927;-55
2023/04/17 01:25:29;;;;;;;;;;;;;;;8.31;83.91;98313.53;5062860;28;19930;-55
2023/04/17 01:27:59;;;;;;;;;;;;;;;8.44;83.78;98317.50;5064498;28;20329;-56
2023/04/17 01:30:28;;;;;;;;;;;;;;;8.43;83.56;98315.91;5067408;28;20011;-56
2023/04/17 01:33:06;;;;;;;;;;;;;;;8.43;83.33;98316.69;5065705;28;20016;-56
2023/04/17 01:35:34;;;;;;;;;;;;;;;8.43;83.59;98321.31;5066738;28;19927;-56
2023/04/17 01:38:01;;;;;;;;;;;;;;;8.48;83.31;98313.94;5064583;28;19924;-57
2023/04/17 01:40:31;;;;;;;;;;;;;;;8.48;83.16;98316.66;5062006;28;19928;-55
2023/04/17 01:42:58;;;;;;;;;;;;;;;8.55;82.70;98317.09;5052526;28;19921;-56
2023/04/17 01:45:26;;;;;;;;;;;;;;;8.50;82.74;98316.34;5064874;28;19926;-56
2023/04/17 01:47:56;;;;;;;;;;;;;;;8.54;82.40;98314.69;5055840;28;20359;-56
2023/04/17 01:50:27;;;;;;;;;;;;;;;8.49;82.66;98317.44;5058019;28;19975;-56
2023/04/17 01:52:55;;;;;;;;;;;;;;;8.44;82.87;98320.22;5064674;28;20380;-56
2023/04/17 01:55:23;;;;;;;;;;;;;;;8.42;83.06;98309.69;5055909;28;20277;-58
2023/04/17 01:57:55;;;;;;;;;;;;;;;8.38;83.20;98309.44;5055781;28;19928;-56
2023/04/17 02:00:23;;;;;;;;;;;;;;;8.44;83.24;98314.81;5060510;28;20258;-56
2023/04/17 02:02:58;;;;;;;;;;;;;;;8.55;82.59;98308.97;5073841;28;19920;-55
2023/04/17 02:05:36;;;;;;;;;;;;;;;8.55;82.32;98317.09;5057353;28;20340;-60
2023/04/17 02:08:05;;;;;;;;;;;;;;;8.49;82.75;98320.16;5051041;28;20401;-55
2023/04/17 02:10:33;;;;;;;;;;;;;;;8.45;82.83;98313.69;5059607;28;19987;-55
2023/04/17 02:13:02;;;;;;;;;;;;;;;8.42;83.00;98319.72;5065619;28;19925;-56
2023/04/17 02:15:30;;;;;;;;;;;;;;;8.39;82.98;98319.16;5064207;28;20007;-55
2023/04/17 02:17:58;;;;;;;;;;;;;;;8.41;82.86;98318.88;5069388;28;20309;-56
2023/04/17 02:20:26;;;;;;;;;;;;;;;8.44;82.81;98321.00;5055578;28;20003;-57
2023/04/17 02:22:54;;;;;;;;;;;;;;;8.50;82.66;98321.78;5064857;28;19931;-56
2023/04/17 02:25:21;;;;;;;;;;;;;;;8.47;82.59;98322.34;5070298;28;19931;-56
2023/04/17 02:27:49;;;;;;;;;;;;;;;8.43;83.03;98324.03;5063124;28;19921;-58
2023/04/17 02:30:18;;;;;;;;;;;;;;;8.40;82.99;98323.47;5064800;28;20374;-57
2023/04/17 02:32:46;;;;;;;;;;;;;;;8.29;83.19;98321.94;5072683;28;19983;-56
2023/04/17 02:35:14;;;;;;;;;;;;;;;8.39;82.64;98323.78;5071272;28;19991;-57
2023/04/17 02:37:42;;;;;;;;;;;;;;;8.42;82.62;98333.25;5073894;28;19920;-56
2023/04/17 02:40:10;;;;;;;;;;;;;;;8.35;83.15;98331.63;5075499;28;19927;-56
2023/04/17 02:42:37;;;;;;;;;;;;;;;8.42;82.93;98333.25;5065424;28;19928;-56
2023/04/17 02:45:05;;;;;;;;;;;;;;;8.36;82.97;98327.88;5056176;28;19928;-58
2023/04/17 02:47:35;;;;;;;;;;;;;;;8.30;83.03;98322.75;5071728;28;20311;-56
2023/04/17 02:50:03;;;;;;;;;;;;;;;8.26;83.23;98330.66;5069917;28;20441;-55
2023/04/17 02:52:37;;;;;;;;;;;;;;;8.32;83.35;98326.81;5069517;28;19947;-56
2023/04/17 02:55:06;;;;;;;;;;;;;;;8.33;83.20;98328.41;5066099;28;19920;-55
2023/04/17 02:57:34;;;;;;;;;;;;;;;8.26;83.31;98316.31;5059030;28;20383;-56
2023/04/17 03:00:06;;;;;;;;;;;;;;;8.20;83.74;98318.25;5057884;28;19927;-56
2023/04/17 03:02:36;;;;;;;;;;;;;;;8.25;83.57;98323.59;5059068;28;19920;-58
2023/04/17 03:05:05;;;;;;;;;;;;;;;8.19;83.46;98332.88;5063408;28;19920;-56
2023/04/17 03:07:33;;;;;;;;;;;;;;;8.27;83.51;98324.13;5058351;28;19931;-56
2023/04/17 03:10:02;;;;;;;;;;;;;;;8.21;83.46;98317.16;5055194;28;19936;-57
2023/04/17 03:12:30;;;;;;;;;;;;;;;8.23;83.61;98320.38;5068144;28;19930;-56
2023/04/17 03:15:01;;;;;;;;;;;;;;;8.25;83.17;98320.91;5068805;28;20337;-56
2023/04/17 03:17:29;;;;;;;;;;;;;;;8.23;83.30;98322.28;5065433;28;20006;-55
2023/04/17 03:19:59;;;;;;;;;;;;;;;8.26;83.01;98317.13;5063958;28;19947;-55
2023/04/17 03:22:26;;;;;;;;;;;;;;;8.26;83.31;98327.16;5063033;28;19925;-55
2023/04/17 03:24:54;;;;;;;;;;;;;;;8.20;83.36;98331.78;5059145;28;19920;-56
2023/04/17 03:27:26;;;;;;;;;;;;;;;8.22;82.89;98321.47;5065122;28;19967;-56
2023/04/17 03:29:55;;;;;;;;;;;;;;;8.21;83.17;98321.78;5050645;28;19921;-56
2023/04/17 03:32:24;;;;;;;;;;;;;;;8.23;83.25;98328.50;5062027;28;19928;-57
2023/04/17 03:34:52;;;;;;;;;;;;;;;8.22;82.86;98335.03;5065368;28;19921;-56
2023/04/17 03:37:22;;;;;;;;;;;;;;;8.24;83.00;98340.13;5075501;28;19968;-55
2023/04/17 03:39:50;;;;;;;;;;;;;;;8.24;82.84;98343.66;5057850;28;19920;-55
2023/04/17 03:42:18;;;;;;;;;;;;;;;8.25;83.04;98350.66;5059983;28;19921;-56
2023/04/17 03:44:49;;;;;;;;;;;;;;;8.23;83.27;98344.75;5060110;28;19921;-57
2023/04/17 03:47:18;;;;;;;;;;;;;;;8.31;82.88;98343.31;5083147;28;19920;-55
2023/04/17 03:49:46;;;;;;;;;;;;;;;8.33;82.73;98339.22;5060758;28;20407;-55
2023/04/17 03:52:14;;;;;;;;;;;;;;;8.34;82.43;98335.44;5066603;28;19931;-59
2023/04/17 03:54:44;;;;;;;;;;;;;;;8.27;82.82;98347.69;5064563;28;19951;-55
2023/04/17 03:57:13;;;;;;;;;;;;;;;8.29;83.14;98338.19;5044735;28;19979;-55
2023/04/17 03:59:41;;;;;;;;;;;;;;;8.24;82.97;98342.84;5042679;28;19924;-57
2023/04/17 04:02:09;;;;;;;;;;;;;;;8.34;82.71;98338.13;5069574;28;19924;-59
2023/04/17 04:04:37;;;;;;;;;;;;;;;8.40;82.56;98342.44;5060347;28;19928;-60
2023/04/17 04:07:10;;;;;;;;;;;;;;;8.29;82.67;98338.19;5031680;28;20520;-57
2023/04/17 04:09:38;;;;;;;;;;;;;;;8.30;83.04;98350.63;5052289;28;20325;-56
2023/04/17 04:12:08;;;;;;;;;;;;;;;8.28;83.21;98347.41;5053851;28;19924;-56
2023/04/17 04:14:43;;;;;;;;;;;;;;;8.31;83.10;98357.69;5047305;28;19927;-56
2023/04/17 04:17:12;;;;;;;;;;;;;;;8.33;83.30;98358.19;5042879;28;19924;-55
2023/04/17 04:19:42;;;;;;;;;;;;;;;8.38;82.63;98351.94;5043169;28;19984;-56
2023/04/17 04:22:12;;;;;;;;;;;;;;;8.42;82.69;98352.19;5054992;28;19927;-56
2023/04/17 04:24:46;;;;;;;;;;;;;;;8.50;82.30;98359.69;5045356;28;19970;-56
2023/04/17 04:27:21;;;;;;;;;;;;;;;8.50;82.49;98355.06;5047960;28;19932;-57
2023/04/17 04:29:51;;;;;;;;;;;;;;;8.47;82.33;98355.66;5038765;28;19931;-56
2023/04/17 04:32:20;;;;;;;;;;;;;;;8.46;82.52;98370.25;5047510;28;19954;-56
2023/04/17 04:34:50;;;;;;;;;;;;;;;8.39;82.52;98370.59;5046032;28;19920;-57
2023/04/17 04:37:20;;;;;;;;;;;;;;;8.44;82.62;98371.66;5044924;28;20435;-56
2023/04/17 04:40:00;;;;;;;;;;;;;;;8.44;82.93;98355.41;5066543;28;19928;-56
2023/04/17 04:42:30;;;;;;;;;;;;;;;8.54;82.36;98355.31;5047276;28;19930;-58
2023/04/17 04:45:09;;;;;;;;;;;;;;;8.65;81.82;98362.22;5049885;28;19924;-56
2023/04/17 04:47:37;;;;;;;;;;;;;;;8.58;81.88;98357.16;5069611;28;19920;-56
2023/04/17 04:50:05;;;;;;;;;;;;;;;8.60;81.67;98354.97;5064722;28;19933;-56
2023/04/17 04:52:33;;;;;;;;;;;;;;;8.63;82.05;98362.53;5043843;28;20281;-57
2023/04/17 04:55:07;;;;;;;;;;;;;;;8.61;81.79;98356.56;5043839;28;20015;-55
2023/04/17 04:57:42;;;;;;;;;;;;;;;8.70;81.41;98362.19;5068313;28;20337;-56
2023/04/17 05:00:10;;;;;;;;;;;;;;;8.77;81.21;98365.34;5046562;28;19939;-56
2023/04/17 05:02:43;;;;;;;;;;;;;;;8.75;81.28;98369.44;5066394;28;19920;-56
2023/04/17 05:05:16;;;;;;;;;;;;;;;8.63;81.65;98370.66;5043494;28;19959;-56
2023/04/17 05:07:44;;;;;;;;;;;;;;;8.85;80.83;98372.03;5049397;28;20441;-55
2023/04/17 05:10:14;;;;;;;;;;;;;;;8.91;80.72;98370.88;5047613;28;19927;-55
2023/04/17 05:12:49;;;;;;;;;;;;;;;8.94;80.30;98375.69;5040754;28;20393;-65
2023/04/17 05:15:18;;;;;;;;;;;;;;;8.93;80.18;98380.31;5042703;28;20134;-55
2023/04/17 05:17:46;;;;;;;;;;;;;;;8.87;80.59;98376.06;5046185;28;19932;-55
2023/04/17 05:20:15;;;;;;;;;;;;;;;8.86;80.67;98379.88;5035350;28;19932;-56
2023/04/17 05:22:50;;;;;;;;;;;;;;;8.86;80.61;98382.59;5049545;28;19943;-55
2023/04/17 05:25:19;;;;;;;;;;;;;;;8.94;80.47;98383.84;5056687;28;19933;-55
2023/04/17 05:27:47;;;;;;;;;;;;;;;8.84;80.95;98384.78;5045063;28;19920;-55
2023/04/17 05:30:19;;;;;;;;;;;;;;;9.01;80.06;98387.03;5050050;28;20332;-56
2023/04/17 05:32:54;;;;;;;;;;;;;;;9.01;79.62;98386.22;5034651;28;20346;-55
2023/04/17 05:35:45;;;;;;;;;;;;;;;9.00;80.06;98396.25;5064086;28;20381;-55
2023/04/17 05:38:13;;;;;;;;;;;;;;;8.99;79.44;98393.81;5047996;28;19939;-55
2023/04/17 05:40:41;;;;;;;;;;;;;;;8.88;80.48;98393.13;5038307;28;19928;-54
2023/04/17 05:43:10;;;;;;;;;;;;;;;8.86;80.49;98393.41;5044727;28;19933;-55
2023/04/17 05:45:41;;;;;;;;;;;;;;;9.02;80.25;98395.97;5048595;28;19928;-55
2023/04/17 05:48:09;;;;;;;;;;;;;;;9.03;79.92;98401.09;5069689;28;19924;-56
2023/04/17 05:50:37;;;;;;;;;;;;;;;9.08;79.47;98398.31;5056835;28;19932;-57
2023/04/17 05:53:07;;;;;;;;;;;;;;;9.11;79.91;98400.47;5056339;28;20294;-57
2023/04/17 05:55:41;;;;;;;;;;;;;;;9.15;79.55;98395.25;5071056;28;19966;-55
2023/04/17 05:58:11;;;;;;;;;;;;;;;9.19;79.47;98394.38;5067888;28;19932;-55
2023/04/17 06:00:44;;;;;;;;;;;;;;;9.23;79.66;98405.47;5062633;28;19927;-57
2023/04/17 06:03:15;;;;;;;;;;;;;;;9.37;78.68;98406.34;5071641;28;20404;-56
2023/04/17 06:05:46;;;;;;;;;;;;;;;9.43;78.52;98397.06;5064300;28;19971;-55
2023/04/17 06:08:15;;;;;;;;;;;;;;;9.41;78.88;98404.66;5055291;28;19928;-55
2023/04/17 06:10:44;;;;;;;;;;;;;;;9.44;78.67;98395.16;5071711;28;19920;-55
2023/04/17 06:13:12;;;;;;;;;;;;;;;9.59;77.68;98405.00;5070981;28;19936;-55
2023/04/17 06:15:46;;;;;;;;;;;;;;;9.51;77.85;98402.94;5068149;28;20627;-56
2023/04/17 06:18:18;;;;;;;;;;;;;;;9.43;77.84;98404.41;5051868;28;19935;-55
2023/04/17 06:20:46;;;;;;;;;;;;;;;9.47;78.00;98408.13;5062621;28;19921;-55
2023/04/17 06:23:13;;;;;;;;;;;;;;;9.56;77.89;98411.81;5066058;28;20475;-55
2023/04/17 06:25:44;;;;;;;;;;;;;;;9.67;77.74;98412.47;5064544;28;19921;-63
2023/04/17 06:28:12;;;;;;;;;;;;;;;9.74;77.43;98421.03;5063734;28;19925;-55
2023/04/17 06:30:40;;;;;;;;;;;;;;;9.65;77.88;98411.97;5070751;28;20364;-55
2023/04/17 06:33:10;;;;;;;;;;;;;;;9.74;77.21;98414.81;5071636;28;19920;-55
2023/04/17 06:35:39;;;;;;;;;;;;;;;9.95;76.27;98414.22;5064077;28;19928;-55
2023/04/17 06:38:33;;;;;;;;;;;;;;;9.93;76.71;98413.72;5064383;28;19927;-54
2023/04/17 06:41:01;;;;;;;;;;;;;;;9.86;76.54;98418.72;5066216;28;19927;-59
2023/04/17 06:43:29;;;;;;;;;;;;;;;10.03;76.16;98418.19;5073181;28;19927;-55
2023/04/17 06:46:00;;;;;;;;;;;;;;;10.09;75.32;98416.19;5067129;28;20372;-55
2023/04/17 06:48:34;;;;;;;;;;;;;;;9.96;75.53;98423.19;5076704;28;19920;-59
2023/04/17 06:51:02;;;;;;;;;;;;;;;9.93;75.27;98419.13;5083059;28;19925;-55
2023/04/17 06:53:30;;;;;;;;;;;;;;;10.02;74.46;98416.56;5069900;28;19924;-58
2023/04/17 06:55:58;;;;;;;;;;;;;;;10.12;74.83;98421.84;5065465;28;19929;-54
2023/04/17 06:58:26;;;;;;;;;;;;;;;10.12;74.11;98421.84;5072990;28;19921;-54
2023/04/17 07:00:54;;;;;;;;;;;;;;;10.16;74.45;98422.03;5064399;28;19970;-55
2023/04/17 07:03:22;;;;;;;;;;;;;;;10.20;74.77;98417.63;5055838;28;19975;-54
2023/04/17 07:05:51;;;;;;;;;;;;;;;10.21;74.95;98416.53;5064827;28;19971;-55
2023/04/17 07:08:21;;;;;;;;;;;;;;;10.26;75.01;98424.63;5068256;28;19942;-54
2023/04/17 07:10:52;;;;;;;;;;;;;;;10.29;74.76;98415.91;5073671;28;19971;-55
2023/04/17 07:13:20;;;;;;;;;;;;;;;10.21;75.04;98421.97;5070039;28;19935;-54
2023/04/17 07:15:51;;;;;;;;;;;;;;;10.26;74.50;98430.06;5072832;28;19974;-54
2023/04/17 07:18:20;;;;;;;;;;;;;;;10.24;74.52;98429.56;5065587;28;19925;-55
2023/04/17 07:20:48;;;;;;;;;;;;;;;10.20;74.16;98426.59;5065278;28;19924;-57
2023/04/17 07:23:18;;;;;;;;;;;;;;;10.08;74.74;98428.16;5077974;28;19986;-54
2023/04/17 07:25:53;;;;;;;;;;;;;;;10.07;75.33;98431.97;5064995;28;19921;-55
2023/04/17 07:28:24;;;;;;;;;;;;;;;10.18;75.04;98420.66;5066765;28;19947;-54
2023/04/17 07:30:56;;;;;;;;;;;;;;;10.26;74.28;98432.78;5070202;28;19920;-54
2023/04/17 07:33:24;;;;;;;;;;;;;;;10.31;74.04;98431.91;5071320;28;19943;-55
2023/04/17 07:35:52;;;;;;;;;;;;;;;10.34;73.45;98436.75;5071457;28;19920;-55
2023/04/17 07:38:22;;;;;;;;;;;;;;;10.24;73.74;98437.72;5066099;28;19936;-56
2023/04/17 07:40:49;;;;;;;;;;;;;;;10.27;73.06;98433.56;5067123;28;20250;-54
2023/04/17 07:43:17;;;;;;;;;;;;;;;10.43;71.56;98443.88;5068660;28;19928;-55
2023/04/17 07:45:45;;;;;;;;;;;;;;;10.64;70.70;98441.63;5065759;28;19920;-54
2023/04/17 07:48:13;;;;;;;;;;;;;;;10.73;70.10;98444.47;5069250;28;19931;-54
2023/04/17 07:50:41;;;;;;;;;;;;;;;10.82;68.86;98448.13;5070480;28;20388;-55
2023/04/17 07:53:09;;;;;;;;;;;;;;;10.90;68.75;98444.72;5067182;28;19924;-56
2023/04/17 07:55:38;;;;;;;;;;;;;;;10.85;68.69;98455.66;5068806;28;19920;-56
2023/04/17 07:58:08;;;;;;;;;;;;;;;10.84;68.16;98448.63;5069516;28;19927;-55
2023/04/17 08:00:36;;;;;;;;;;;;;;;10.81;67.20;98451.94;5067903;28;19928;-54
2023/04/17 08:03:04;;;;;;;;;;;;;;;10.82;67.61;98456.28;5071368;28;19920;-54
2023/04/17 08:05:35;;;;;;;;;;;;;;;10.68;67.16;98456.25;5064370;28;19999;-54
2023/04/17 08:08:05;;;;;;;;;;;;;;;10.60;67.97;98459.66;5070580;28;19974;-55
2023/04/17 08:10:33;;;;;;;;;;;;;;;10.65;68.04;98467.72;5051127;28;19928;-55
2023/04/17 08:13:03;;;;;;;;;;;;;;;10.72;67.07;98456.47;5055650;28;20336;-54
2023/04/17 08:15:31;;;;;;;;;;;;;;;10.71;67.34;98465.72;5059100;28;20405;-56
2023/04/17 08:17:59;;;;;;;;;;;;;;;10.82;67.37;98467.16;5063007;28;19947;-55
2023/04/17 08:20:28;;;;;;;;;;;;;;;10.82;66.92;98467.16;5068117;28;20747;-55
2023/04/17 08:22:56;;;;;;;;;;;;;;;10.68;67.11;98471.75;5065311;28;19924;-55
2023/04/17 08:25:24;;;;;;;;;;;;;;;10.67;67.45;98464.72;5068774;28;20328;-54
2023/04/17 08:27:52;;;;;;;;;;;;;;;10.72;67.04;98470.84;5071232;28;19933;-58
2023/04/17 08:30:21;;;;;;;;;;;;;;;10.72;66.39;98470.06;5068341;28;19936;-54
2023/04/17 08:32:50;;;;;;;;;;;;;;;10.63;66.62;98475.34;5080198;28;19924;-54
2023/04/17 08:35:19;;;;;;;;;;;;;;;10.75;66.29;98472.16;5069109;28;19924;-55
2023/04/17 08:37:47;;;;;;;;;;;;;;;10.77;66.44;98474.59;5069020;28;20293;-55
2023/04/17 08:40:15;;;;;;;;;;;;;;;10.84;65.70;98472.28;5066864;28;19920;-54
2023/04/17 08:42:46;;;;;;;;;;;;;;;10.80;65.79;98479.41;5074122;28;20262;-56
2023/04/17 08:45:15;;;;;;;;;;;;;;;10.78;66.22;98471.56;5060815;28;19994;-55
2023/04/17 08:47:44;;;;;;;;;;;;;;;10.87;65.45;98475.22;5072522;28;19927;-54
2023/04/17 08:50:12;;;;;;;;;;;;;;;10.80;65.87;98474.78;5065934;28;19925;-55
2023/04/17 08:52:41;;;;;;;;;;;;;;;10.80;65.27;98468.53;5061544;28;19951;-55
2023/04/17 08:55:09;;;;;;;;;;;;;;;10.79;65.46;98465.03;5065833;28;19920;-62
2023/04/17 08:57:52;;;;;;;;;;;;;;;10.77;65.68;98478.13;5063011;28;20265;-55
2023/04/17 09:00:23;;;;;;;;;;;;;;;10.84;64.82;98469.56;5067046;28;19931;-54
2023/04/17 09:02:53;;;;;;;;;;;;;;;10.88;65.13;98476.84;5063669;28;19925;-59
2023/04/17 09:05:22;;;;;;;;;;;;;;;10.94;63.91;98469.38;5059282;28;19948;-54
2023/04/17 09:07:50;;;;;;;;;;;;;;;10.92;64.48;98471.59;5059675;28;19929;-55
2023/04/17 09:10:18;;;;;;;;;;;;;;;11.05;65.17;98484.41;5066636;28;20401;-55
2023/04/17 09:12:58;;;;;;;;;;;;;;;11.22;65.00;98475.66;5059811;28;19921;-55
2023/04/17 09:15:27;;;;;;;;;;;;;;;11.31;63.56;98483.94;5073675;28;19928;-55
2023/04/17 09:17:56;;;;;;;;;;;;;;;11.31;63.31;98481.22;5061542;28;19920;-57
2023/04/17 09:20:24;;;;;;;;;;;;;;;11.40;62.93;98476.66;5072993;28;19933;-55
2023/04/17 09:22:58;;;;;;;;;;;;;;;11.54;62.33;98472.81;5061078;28;20361;-56
2023/04/17 09:25:27;;;;;;;;;;;;;;;11.67;61.42;98473.94;5070640;28;19926;-55
2023/04/17 09:27:55;;;;;;;;;;;;;;;11.86;61.41;98473.81;5068780;28;20266;-54
2023/04/17 09:30:25;;;;;;;;;;;;;;;12.02;60.73;98471.56;5066798;28;19924;-55
2023/04/17 09:33:06;;;;;;;;;;;;;;;12.13;60.00;98472.16;5075339;28;19956;-55
2023/04/17 09:35:36;;;;;;;;;;;;;;;12.13;59.25;98472.94;5061352;28;19921;-54
2023/04/17 09:38:06;;;;;;;;;;;;;;;12.11;59.35;98468.94;5070918;28;20344;-54
2023/04/17 09:40:38;;;;;;;;;;;;;;;12.08;59.26;98473.06;5059681;28;19956;-54
2023/04/17 09:43:07;;;;;;;;;;;;;;;12.20;59.76;98480.72;5064824;28;20365;-54
2023/04/17 09:45:38;;;;;;;;;;;;;;;12.13;59.06;98474.88;5063250;28;20000;-55
2023/04/17 09:48:09;;;;;;;;;;;;;;;12.15;59.45;98473.47;5069382;28;19921;-55
2023/04/17 09:50:36;;;;;;;;;;;;;;;12.14;59.70;98471.03;5062295;28;19929;-56
2023/04/17 09:53:06;;;;;;;;;;;;;;;12.08;59.77;98473.06;5065375;28;19939;-54
2023/04/17 09:55:36;;;;;;;;;;;;;;;11.96;59.88;98478.25;5060792;28;19935;-56
2023/04/17 09:58:06;;;;;;;;;;;;;;;11.86;60.17;98473.81;5068858;28;19920;-56
2023/04/17 10:00:35;;;;;;;;;;;;;;;11.83;60.56;98474.44;5069881;28;19959;-54
2023/04/17 10:03:03;;;;;;;;;;;;;;;11.74;60.77;98478.97;5060316;28;19921;-55
2023/04/17 10:05:36;;;;;;;;;;;;;;;11.63;60.52;98475.66;5063746;28;20625;-55
2023/04/17 10:08:04;;;;;;;;;;;;;;;11.55;60.91;98482.59;5057045;28;20019;-54
2023/04/17 10:10:32;;;;;;;;;;;;;;;11.69;60.06;98476.34;5064827;28;19921;-54
2023/04/17 10:13:01;;;;;;;;;;;;;;;11.68;59.93;98466.56;5050298;28;19921;-55
2023/04/17 10:15:29;;;;;;;;;;;;;;;11.54;59.16;98472.81;5066173;28;20377;-54
2023/04/17 10:18:18;;;;;;;;;;;;;;;11.53;59.82;98473.13;5054071;28;19928;-55
2023/04/17 10:20:47;;;;;;;;;;;;;;;11.59;59.65;98474.63;5067338;28;19921;-56
2023/04/17 10:23:29;;;;;;;;;;;;;;;11.55;59.82;98471.72;5052558;28;19921;-54
2023/04/17 10:26:18;;;;;;;;;;;;;;;11.53;59.95;98476.66;5067932;28;19920;-54
2023/04/17 10:28:49;;;;;;;;;;;;;;;11.52;59.72;98469.63;5071238;28;19943;-54
2023/04/17 10:31:18;;;;;;;;;;;;;;;11.56;59.92;98472.53;5077674;28;19927;-55
2023/04/17 10:33:48;;;;;;;;;;;;;;;11.57;59.52;98468.72;5063356;28;19953;-55
2023/04/17 10:36:31;;;;;;;;;;;;;;;11.61;59.38;98469.72;5062114;28;20438;-54
2023/04/17 10:39:08;;;;;;;;;;;;;;;11.66;59.09;98466.88;5059618;28;19974;-54
2023/04/17 10:41:36;;;;;;;;;;;;;;;11.78;59.14;98461.72;5060548;28;19932;-55
2023/04/17 10:44:04;;;;;;;;;;;;;;;11.76;59.26;98466.66;5052684;28;19928;-57
2023/04/17 10:46:31;;;;;;;;;;;;;;;11.77;59.08;98467.44;5072213;28;19920;-56
2023/04/17 10:49:00;;;;;;;;;;;;;;;11.74;59.29;98466.16;5061904;28;19921;-55
2023/04/17 10:51:41;;;;;;;;;;;;;;;11.73;59.10;98466.47;5059003;28;19920;-55
2023/04/17 10:54:14;;;;;;;;;;;;;;;11.63;58.81;98464.75;5077074;28;19920;-54
2023/04/17 10:56:44;;;;;;;;;;;;;;;11.54;59.70;98461.13;5071440;28;19932;-54
2023/04/17 10:59:13;;;;;;;;;;;;;;;11.74;59.15;98454.47;5071245;28;19933;-55
2023/04/17 11:01:56;;;;;;;;;;;;;;;11.85;58.85;98455.09;5081256;28;20387;-54
2023/04/17 11:04:26;;;;;;;;;;;;;;;11.93;59.00;98447.00;5059409;28;20378;-55
2023/04/17 11:06:54;;;;;;;;;;;;;;;12.12;59.19;98448.75;5076938;28;19935;-54
2023/04/17 11:09:25;;;;;;;;;;;;;;;12.12;57.87;98455.00;5084453;28;20014;-54
2023/04/17 11:11:53;;;;;;;;;;;;;;;12.20;58.26;98446.09;5079258;28;20417;-54
2023/04/17 11:14:21;;;;;;;;;;;;;;;12.15;58.58;98450.88;5091678;28;19928;-56
2023/04/17 11:16:50;;;;;;;;;;;;;;;12.19;58.75;98443.66;5084218;28;19927;-56
2023/04/17 11:19:20;;;;;;;;;;;;;;;12.37;58.81;98434.53;5090095;28;19920;-54
2023/04/17 11:21:48;;;;;;;;;;;;;;;12.61;57.77;98438.84;5092212;28;19920;-58
2023/04/17 11:24:22;;;;;;;;;;;;;;;12.74;57.86;98432.50;5080121;28;20548;-54
2023/04/17 11:26:51;;;;;;;;;;;;;;;12.84;57.76;98435.78;5090286;28;19927;-54
2023/04/17 11:29:20;;;;;;;;;;;;;;;12.81;57.77;98433.66;5090420;28;20346;-54
2023/04/17 11:31:48;;;;;;;;;;;;;;;12.86;57.60;98438.19;5090126;28;19926;-56
2023/04/17 11:34:17;;;;;;;;;;;;;;;12.71;56.95;98438.56;5090441;28;19924;-55
2023/04/17 11:36:48;;;;;;;;;;;;;;;12.43;57.16;98441.47;5084068;28;19927;-56
2023/04/17 11:39:17;;;;;;;;;;;;;;;12.35;57.26;98436.72;5086903;28;19921;-54
2023/04/17 11:41:45;;;;;;;;;;;;;;;12.36;57.37;98438.38;5083185;28;20293;-54
2023/04/17 11:44:14;;;;;;;;;;;;;;;12.36;57.49;98435.66;5078988;28;19953;-56
2023/04/17 11:46:42;;;;;;;;;;;;;;;12.46;57.26;98431.84;5098950;28;20361;-54
2023/04/17 11:49:11;;;;;;;;;;;;;;;12.59;56.97;98436.44;5089238;28;19927;-57
2023/04/17 11:51:39;;;;;;;;;;;;;;;12.65;55.51;98437.09;5078373;28;19920;-55
2023/04/17 11:54:07;;;;;;;;;;;;;;;12.64;55.56;98435.50;5081974;28;19928;-55
2023/04/17 11:56:35;;;;;;;;;;;;;;;12.47;56.63;98439.72;5082682;28;19927;-54
2023/04/17 11:59:03;;;;;;;;;;;;;;;12.41;57.62;98440.13;5093009;28;20329;-54
2023/04/17 12:01:33;;;;;;;;;;;;;;;12.40;57.99;98433.88;5065209;28;20285;-55
2023/04/17 12:04:01;;;;;;;;;;;;;;;12.36;57.65;98432.91;5079213;28;19927;-55
2023/04/17 12:06:35;;;;;;;;;;;;;;;12.41;57.42;98445.59;5089433;28;19927;-55
2023/04/17 12:09:05;;;;;;;;;;;;;;;12.54;57.06;98431.91;5085368;28;20273;-54
2023/04/17 12:11:34;;;;;;;;;;;;;;;12.76;57.43;98427.53;5084667;28;19920;-55
2023/04/17 12:14:03;;;;;;;;;;;;;;;12.81;56.90;98432.84;5060310;28;19921;-55
2023/04/17 12:16:33;;;;;;;;;;;;;;;12.64;56.50;98438.22;5086201;28;19955;-55
2023/04/17 12:19:01;;;;;;;;;;;;;;;12.54;57.11;98433.84;5072544;28;19919;-54
2023/04/17 12:21:30;;;;;;;;;;;;;;;12.54;56.58;98428.38;5085458;28;19927;-55
2023/04/17 12:23:58;;;;;;;;;;;;;;;12.50;56.53;98432.84;5082453;28;20357;-56
2023/04/17 12:26:27;;;;;;;;;;;;;;;12.38;56.64;98436.13;5084027;28;19924;-54
2023/04/17 12:28:56;;;;;;;;;;;;;;;12.35;56.96;98436.72;5075231;28;19932;-54
2023/04/17 12:31:24;;;;;;;;;;;;;;;12.36;57.46;98443.81;5092851;28;19924;-54
2023/04/17 12:33:53;;;;;;;;;;;;;;;12.31;57.62;98443.94;5072068;28;19927;-56
2023/04/17 12:36:21;;;;;;;;;;;;;;;12.22;57.68;98432.97;5090240;28;19924;-54
2023/04/17 12:38:50;;;;;;;;;;;;;;;12.19;57.51;98432.78;5089183;28;19920;-55
2023/04/17 12:41:18;;;;;;;;;;;;;;;12.12;57.45;98437.84;5077426;28;19932;-55
2023/04/17 12:43:45;;;;;;;;;;;;;;;12.23;57.78;98431.84;5087788;28;19929;-55
2023/04/17 12:46:13;;;;;;;;;;;;;;;12.14;57.08;98430.16;5090798;28;19931;-54
2023/04/17 12:48:42;;;;;;;;;;;;;;;12.33;56.76;98423.44;5074740;28;19921;-54
2023/04/17 12:51:11;;;;;;;;;;;;;;;12.43;56.88;98419.66;5079785;28;19970;-54
2023/04/17 12:53:39;;;;;;;;;;;;;;;12.50;56.50;98417.28;5092512;28;19927;-55
2023/04/17 12:56:07;;;;;;;;;;;;;;;12.55;56.11;98425.34;5080215;28;19920;-54
2023/04/17 12:58:35;;;;;;;;;;;;;;;12.52;55.20;98425.16;5079526;28;19920;-54
2023/04/17 13:01:03;;;;;;;;;;;;;;;12.55;55.26;98425.34;5090529;28;20007;-54
2023/04/17 13:03:33;;;;;;;;;;;;;;;12.50;55.22;98422.75;5083392;28;19970;-55
2023/04/17 13:06:04;;;;;;;;;;;;;;;12.51;55.98;98423.53;5087227;28;19977;-55